Time;durP1;ratioP1;P1;durP2;ratioP2;P2;SDS_P1;SDS_P2;PMS_P1;PMS_P2;Temp;Humidity;BMP_temperature;BMP_pressure;BME280_temperature;BME280_humidity;BME280_pressure;Samples;Min_cycle;Max_cycle;Signal;HPM_P1;HPM_P2
2022/12/19 00:00:20;;;;;;;21.30;10.37;;;;;;;0.59;100.00;96162.25;5090849;28;20295;-54
2022/12/19 00:02:46;;;;;;;26.37;10.33;;;;;;;0.39;100.00;96184.38;5089154;28;20198;-54
2022/12/19 00:05:12;;;;;;;20.33;10.87;;;;;;;0.32;100.00;96163.69;5089411;28;20295;-53
2022/12/19 00:07:38;;;;;;;22.67;10.93;;;;;;;0.43;100.00;96181.78;5090707;28;20195;-54
2022/12/19 00:10:05;;;;;;;22.83;10.20;;;;;;;0.39;100.00;96185.22;5090868;28;20708;-55
2022/12/19 00:12:33;;;;;;;21.03;11.70;;;;;;;0.43;100.00;96185.97;5090815;28;20197;-54
2022/12/19 00:14:58;;;;;;;21.37;11.67;;;;;;;0.42;100.00;96189.31;5090701;28;20211;-56
2022/12/19 00:17:23;;;;;;;19.87;10.23;;;;;;;0.41;100.00;96177.66;5090717;28;20211;-56
2022/12/19 00:19:49;;;;;;;23.70;11.20;;;;;;;0.52;100.00;96175.78;5091286;28;20212;-57
2022/12/19 00:22:17;;;;;;;20.30;10.87;;;;;;;0.48;100.00;96180.03;5090556;28;20233;-53
2022/12/19 00:24:42;;;;;;;22.40;11.33;;;;;;;0.57;100.00;96191.50;5090738;28;20299;-54
2022/12/19 00:27:08;;;;;;;21.30;11.57;;;;;;;0.56;100.00;96173.19;5090620;28;20275;-54
2022/12/19 00:29:33;;;;;;;18.50;10.63;;;;;;;0.54;100.00;96194.06;5090689;28;20573;-56
2022/12/19 00:31:59;;;;;;;22.80;11.50;;;;;;;0.58;100.00;96201.50;5090713;28;20188;-53
2022/12/19 00:34:24;;;;;;;16.87;9.83;;;;;;;0.59;100.00;96194.78;5090471;28;20255;-53
2022/12/19 00:36:49;;;;;;;22.33;10.13;;;;;;;0.70;100.00;96188.72;5090435;28;20393;-52
2022/12/19 00:39:15;;;;;;;23.33;11.17;;;;;;;0.69;100.00;96208.75;5090226;28;20774;-52
2022/12/19 00:41:40;;;;;;;22.73;10.67;;;;;;;0.83;100.00;96214.28;5090547;28;20188;-55
2022/12/19 00:44:09;;;;;;;19.60;11.43;;;;;;;0.88;100.00;96224.19;5090711;28;20192;-56
2022/12/19 00:46:35;;;;;;;18.37;10.23;;;;;;;0.92;100.00;96206.56;5090530;28;20207;-55
2022/12/19 00:49:01;;;;;;;19.10;10.33;;;;;;;0.93;100.00;96227.44;5090417;28;20208;-55
2022/12/19 00:51:29;;;;;;;18.70;10.10;;;;;;;0.84;100.00;96235.94;5090072;28;20192;-54
2022/12/19 00:53:55;;;;;;;20.07;10.03;;;;;;;0.89;100.00;96221.66;5090315;28;20275;-55
2022/12/19 00:56:24;;;;;;;24.20;10.63;;;;;;;0.88;100.00;96215.00;5092202;28;20215;-56
2022/12/19 00:58:49;;;;;;;21.50;11.07;;;;;;;0.81;100.00;96211.81;5093582;28;20697;-55
2022/12/19 01:01:17;;;;;;;22.03;11.07;;;;;;;0.71;100.00;96199.53;5092550;28;20239;-55
2022/12/19 01:03:43;;;;;;;20.23;10.37;;;;;;;0.68;100.00;96192.09;5091866;28;20259;-55
2022/12/19 01:06:09;;;;;;;20.07;10.57;;;;;;;0.79;100.00;96216.03;5093008;28;20318;-54
2022/12/19 01:08:35;;;;;;;18.13;10.40;;;;;;;0.76;100.00;96211.09;5093607;28;20556;-54
2022/12/19 01:11:01;;;;;;;22.67;11.47;;;;;;;0.76;100.00;96205.25;5093348;28;20650;-52
2022/12/19 01:13:29;;;;;;;22.40;11.10;;;;;;;0.84;100.00;96209.25;5093406;28;20196;-53
2022/12/19 01:15:54;;;;;;;20.27;10.30;;;;;;;0.99;100.00;96223.09;5075143;28;20669;-54
2022/12/19 01:18:21;;;;;;;20.47;11.07;;;;;;;0.92;100.00;96224.09;5093530;28;20219;-55
2022/12/19 01:20:47;;;;;;;22.93;11.87;;;;;;;0.79;100.00;96221.03;5093232;28;20220;-57
2022/12/19 01:23:14;;;;;;;22.40;11.83;;;;;;;0.62;100.00;96194.72;5093304;28;20280;-53
2022/12/19 01:25:40;;;;;;;20.53;11.37;;;;;;;0.62;100.00;96199.75;5093140;28;20204;-53
2022/12/19 01:28:06;;;;;;;24.00;11.20;;;;;;;0.67;100.00;96192.94;5093195;28;20187;-54
2022/12/19 01:30:32;;;;;;;21.30;11.37;;;;;;;0.70;100.00;96190.38;5074077;28;20212;-55
2022/12/19 01:32:58;;;;;;;25.43;11.53;;;;;;;0.72;100.00;96208.69;5091350;28;20184;-57
2022/12/19 01:35:24;;;;;;;24.83;11.47;;;;;;;0.75;100.00;96209.44;5092275;28;20212;-52
2022/12/19 01:37:51;;;;;;;25.87;12.23;;;;;;;0.74;100.00;96197.81;5093009;28;20282;-56
2022/12/19 01:40:17;;;;;;;20.13;11.13;;;;;;;0.74;100.00;96200.31;5093003;28;20212;-56
2022/12/19 01:42:43;;;;;;;22.83;11.73;;;;;;;0.80;100.00;96186.81;5092964;28;20184;-55
2022/12/19 01:45:08;;;;;;;23.47;11.60;;;;;;;0.92;100.00;96211.56;5092898;28;20219;-56
2022/12/19 01:47:49;;;;;;;21.83;11.43;;;;;;;0.97;100.00;96208.97;5093028;28;20184;-56
2022/12/19 01:50:19;;;;;;;20.57;11.73;;;;;;;0.85;100.00;96195.88;5092759;28;20215;-57
2022/12/19 01:52:46;;;;;;;23.60;11.67;;;;;;;0.73;100.00;96181.13;5091213;28;20219;-52
2022/12/19 01:55:13;;;;;;;21.20;10.70;;;;;;;0.80;100.00;96197.66;5090668;28;20212;-52
2022/12/19 01:57:38;;;;;;;20.83;11.40;;;;;;;0.61;100.00;96176.38;5092521;28;20208;-53
2022/12/19 02:00:08;;;;;;;20.37;11.10;;;;;;;0.69;100.00;96152.03;5092910;28;20241;-54
2022/12/19 02:02:42;;;;;;;19.43;10.60;;;;;;;0.58;100.00;96165.63;5092750;28;20215;-57
2022/12/19 02:05:08;;;;;;;23.97;11.93;;;;;;;0.76;100.00;96165.22;5092804;28;20219;-55
2022/12/19 02:07:35;;;;;;;19.80;11.37;;;;;;;0.83;100.00;96182.56;5091644;28;20191;-54
2022/12/19 02:10:01;;;;;;;21.57;11.63;;;;;;;0.93;100.00;96177.38;5093080;28;20219;-57
2022/12/19 02:12:32;;;;;;;20.33;11.10;;;;;;;0.91;100.00;96194.91;5092440;28;20203;-56
2022/12/19 02:14:59;;;;;;;19.13;11.30;;;;;;;0.65;100.00;96190.47;5092998;28;20255;-56
2022/12/19 02:17:43;;;;;;;21.43;11.63;;;;;;;0.77;100.00;96199.38;5092137;28;20583;-53
2022/12/19 02:20:27;;;;;;;24.00;11.43;;;;;;;0.85;100.00;96180.84;5092600;28;20269;-55
2022/12/19 02:23:29;;;;;;;22.20;11.43;;;;;;;0.87;100.00;96188.31;5090540;28;20203;-53
2022/12/19 02:26:00;;;;;;;22.27;12.07;;;;;;;0.81;100.00;96170.94;5090773;28;20216;-53
2022/12/19 02:28:54;;;;;;;22.33;11.20;;;;;;;0.74;100.00;96187.78;5092348;28;20192;-52
2022/12/19 02:31:31;;;;;;;22.50;11.17;;;;;;;0.65;100.00;96177.97;5092118;28;20686;-53
2022/12/19 02:34:02;;;;;;;21.77;11.03;;;;;;;0.71;100.00;96182.84;5092392;28;20660;-60
2022/12/19 02:36:44;;;;;;;20.93;11.33;;;;;;;0.78;100.00;96206.06;5092205;28;20199;-54
2022/12/19 02:39:17;;;;;;;25.03;12.23;;;;;;;0.72;100.00;96218.69;5092322;28;20614;-55
2022/12/19 02:42:11;;;;;;;20.97;11.40;;;;;;;0.82;100.00;96215.97;5073986;28;20188;-55
2022/12/19 02:44:44;;;;;;;21.03;10.33;;;;;;;0.93;100.00;96233.22;5070697;28;20223;-56
2022/12/19 02:47:10;;;;;;;20.27;11.27;;;;;;;1.01;100.00;96240.59;5073925;28;20678;-53
2022/12/19 02:49:37;;;;;;;20.77;11.37;;;;;;;0.72;100.00;96228.72;5091776;28;20234;-55
2022/12/19 02:52:19;;;;;;;22.93;11.10;;;;;;;0.67;100.00;96196.28;5090249;28;20468;-56
2022/12/19 02:54:56;;;;;;;20.37;11.13;;;;;;;0.78;100.00;96194.38;5090227;28;20219;-54
2022/12/19 02:57:29;;;;;;;18.23;10.50;;;;;;;1.00;100.00;96234.75;5092133;28;20226;-56
2022/12/19 03:00:07;;;;;;;20.03;11.60;;;;;;;0.98;100.00;96215.63;5092037;28;20337;-56
2022/12/19 03:03:03;;;;;;;20.50;10.60;;;;;;;0.87;100.00;96220.06;5073691;28;20195;-54
2022/12/19 03:05:37;;;;;;;21.73;10.70;;;;;;;0.71;100.00;96197.03;5091675;28;20716;-55
2022/12/19 03:08:24;;;;;;;21.70;11.33;;;;;;;0.88;100.00;96187.47;5091534;28;20210;-52
2022/12/19 03:11:03;;;;;;;21.03;10.70;;;;;;;0.89;100.00;96215.84;5091651;28;20212;-54
2022/12/19 03:13:44;;;;;;;21.33;11.47;;;;;;;1.05;100.00;96217.13;5091777;28;20200;-54
2022/12/19 03:16:11;;;;;;;22.73;11.63;;;;;;;0.90;100.00;96232.50;5091474;28;20600;-53
2022/12/19 03:18:37;;;;;;;20.53;11.20;;;;;;;1.10;100.00;96206.16;5091391;28;20216;-54
2022/12/19 03:21:03;;;;;;;18.77;10.53;;;;;;;0.85;100.00;96215.06;5091512;28;20223;-54
2022/12/19 03:23:29;;;;;;;22.27;11.53;;;;;;;0.92;100.00;96181.53;5091454;28;20231;-53
2022/12/19 03:25:59;;;;;;;20.87;10.57;;;;;;;0.82;100.00;96210.97;5091289;28;20199;-55
2022/12/19 03:28:58;;;;;;;22.17;11.43;;;;;;;0.79;100.00;96201.00;5073093;28;20192;-55
2022/12/19 03:31:29;;;;;;;22.70;10.87;;;;;;;0.81;100.00;96199.28;5072463;28;20196;-52
2022/12/19 03:33:58;;;;;;;20.00;10.63;;;;;;;0.76;100.00;96201.09;5091360;28;20188;-54
2022/12/19 03:36:28;;;;;;;22.77;11.77;;;;;;;0.86;100.00;96219.22;5091345;28;20184;-51
2022/12/19 03:38:56;;;;;;;21.33;11.30;;;;;;;0.71;100.00;96219.53;5091644;28;20211;-53
2022/12/19 03:43:07;;;;;;;23.80;10.83;;;;;;;0.68;100.00;96207.13;5091361;28;20216;-56
2022/12/19 03:44:12;;;;;;;22.50;10.97;;;;;;;0.66;100.00;96204.66;5090938;28;20310;-53
2022/12/19 03:46:42;;;;;;;22.13;11.83;;;;;;;0.63;100.00;96202.19;5091107;28;20661;-55
2022/12/19 03:49:08;;;;;;;25.93;12.83;;;;;;;0.77;100.00;96186.88;5091259;28;20231;-54
2022/12/19 03:51:39;;;;;;;21.33;11.37;;;;;;;0.83;100.00;96201.75;5090355;28;20680;-55
2022/12/19 03:54:37;;;;;;;21.00;10.87;;;;;;;0.76;100.00;96225.28;5088856;28;20291;-56
2022/12/19 03:57:02;;;;;;;24.03;11.80;;;;;;;0.73;100.00;96212.81;5057125;28;20632;-55
2022/12/19 03:59:38;;;;;;;21.80;12.07;;;;;;;0.61;100.00;96220.59;5090706;28;20225;-52
2022/12/19 04:02:04;;;;;;;21.37;10.90;;;;;;;0.64;100.00;96213.88;5090960;28;20184;-54
2022/12/19 04:04:33;;;;;;;20.80;11.37;;;;;;;0.59;100.00;96217.31;5090610;28;20589;-56
2022/12/19 04:07:01;;;;;;;23.00;12.07;;;;;;;0.64;100.00;96228.06;5090924;28;20205;-55
2022/12/19 04:09:28;;;;;;;20.27;11.27;;;;;;;0.60;100.00;96244.81;5091057;28;20211;-52
2022/12/19 04:12:02;;;;;;;23.23;11.53;;;;;;;0.50;100.00;96252.53;5090716;28;20187;-54
2022/12/19 04:14:30;;;;;;;20.33;10.57;;;;;;;0.72;100.00;96248.72;5091013;28;20203;-54
2022/12/19 04:17:01;;;;;;;21.87;11.77;;;;;;;0.73;100.00;96246.19;5090608;28;20209;-53
2022/12/19 04:19:43;;;;;;;22.67;10.97;;;;;;;0.76;100.00;96270.31;5090848;28;20207;-57
2022/12/19 04:22:31;;;;;;;22.70;11.83;;;;;;;0.63;100.00;96296.44;5090720;28;20191;-55
2022/12/19 04:24:58;;;;;;;26.10;13.23;;;;;;;0.43;100.00;96263.50;5088845;28;20216;-56
2022/12/19 04:27:28;;;;;;;23.93;12.33;;;;;;;0.36;100.00;96255.31;5088203;28;20207;-55
2022/12/19 04:29:56;;;;;;;23.43;12.13;;;;;;;0.39;100.00;96259.41;5090278;28;20295;-52
2022/12/19 04:32:23;;;;;;;23.60;12.33;;;;;;;0.35;100.00;96275.31;5094152;28;20238;-56
2022/12/19 04:34:49;;;;;;;25.50;11.63;;;;;;;0.46;100.00;96250.94;5094175;28;20208;-55
2022/12/19 04:37:14;;;;;;;23.77;11.73;;;;;;;0.31;100.00;96264.56;5094007;28;20214;-53
2022/12/19 04:39:40;;;;;;;24.53;12.17;;;;;;;0.36;100.00;96244.47;5093844;28;20250;-57
2022/12/19 04:42:05;;;;;;;21.87;11.23;;;;;;;0.55;100.00;96241.56;5094035;28;20261;-56
2022/12/19 04:44:31;;;;;;;22.60;11.30;;;;;;;0.37;100.00;96251.94;5093802;28;20215;-52
2022/12/19 04:46:56;;;;;;;21.13;11.83;;;;;;;0.11;100.00;96241.63;5093944;28;20263;-56
2022/12/19 04:49:21;;;;;;;24.17;12.40;;;;;;;0.25;100.00;96238.84;5094221;28;20204;-57
2022/12/19 04:51:47;;;;;;;21.87;12.97;;;;;;;0.27;100.00;96259.63;5093849;28;20194;-55
2022/12/19 04:54:13;;;;;;;20.30;12.00;;;;;;;0.20;100.00;96233.97;5093945;28;20204;-57
2022/12/19 04:56:38;;;;;;;23.80;11.60;;;;;;;0.31;100.00;96248.72;5091538;28;20188;-52
2022/12/19 04:59:04;;;;;;;24.10;12.30;;;;;;;0.31;100.00;96266.22;5091469;28;20251;-55
2022/12/19 05:01:29;;;;;;;22.37;11.60;;;;;;;0.24;100.00;96265.53;5093320;28;20188;-54
2022/12/19 05:03:55;;;;;;;21.80;11.33;;;;;;;0.21;100.00;96234.75;5093453;28;20270;-53
2022/12/19 05:06:20;;;;;;;24.77;12.43;;;;;;;0.14;100.00;96251.56;5093540;28;20245;-55
2022/12/19 05:08:46;;;;;;;22.90;11.83;;;;;;;0.12;100.00;96242.44;5093369;28;20634;-57
2022/12/19 05:11:14;;;;;;;23.10;12.17;;;;;;;0.22;100.00;96253.91;5093404;28;20207;-55
2022/12/19 05:13:39;;;;;;;23.60;12.43;;;;;;;0.21;100.00;96252.25;5093386;28;20196;-54
2022/12/19 05:16:09;;;;;;;26.17;12.33;;;;;;;0.35;100.00;96250.31;5093194;28;20272;-53
2022/12/19 05:18:36;;;;;;;22.67;11.40;;;;;;;0.26;100.00;96248.00;5075155;28;20211;-57
2022/12/19 05:21:01;;;;;;;19.87;11.37;;;;;;;0.21;100.00;96259.75;5093495;28;20211;-58
2022/12/19 05:23:34;;;;;;;21.73;10.90;;;;;;;0.28;100.00;96264.63;5093333;28;20191;-57
2022/12/19 05:26:01;;;;;;;24.83;11.20;;;;;;;0.21;100.00;96254.75;5093201;28;20276;-54
2022/12/19 05:28:26;;;;;;;26.20;12.07;;;;;;;0.32;100.00;96262.91;5093030;28;20196;-56
2022/12/19 05:31:11;;;;;;;26.13;12.70;;;;;;;0.67;100.00;96280.50;5101051;22;20288;-56
2022/12/19 05:33:37;;;;;;;26.10;11.43;;;;;;;0.45;100.00;96289.28;5074996;28;20290;-56
2022/12/19 05:36:03;;;;;;;27.57;12.60;;;;;;;0.28;100.00;96273.81;5092787;28;20213;-53
2022/12/19 05:38:28;;;;;;;23.37;11.17;;;;;;;0.12;100.00;96264.94;5092910;28;20223;-56
2022/12/19 05:40:54;;;;;;;23.33;12.40;;;;;;;0.21;100.00;96260.59;5074473;28;20209;-53
2022/12/19 05:43:20;;;;;;;22.40;11.63;;;;;;;0.19;100.00;96264.78;5091810;28;20655;-53
2022/12/19 05:45:45;;;;;;;23.77;12.67;;;;;;;0.28;100.00;96257.13;5092828;28;20271;-53
2022/12/19 05:48:11;;;;;;;24.57;10.73;;;;;;;0.55;100.00;96283.25;5092672;28;20241;-53
2022/12/19 05:50:36;;;;;;;24.87;12.50;;;;;;;0.68;100.00;96299.69;5092764;28;20673;-54
2022/12/19 05:53:01;;;;;;;21.20;10.80;;;;;;;0.53;100.00;96300.81;5092654;28;20207;-56
2022/12/19 05:55:27;;;;;;;22.53;12.07;;;;;;;0.67;100.00;96290.53;5092382;28;20200;-54
2022/12/19 05:57:52;;;;;;;21.50;11.50;;;;;;;0.88;100.00;96315.13;5092339;28;20298;-55
2022/12/19 06:00:18;;;;;;;19.07;10.33;;;;;;;1.31;100.00;96328.41;5074280;28;20766;-57
2022/12/19 06:02:46;;;;;;;22.07;11.33;;;;;;;1.49;100.00;96382.28;5092522;28;20204;-56
2022/12/19 06:05:12;;;;;;;24.77;12.53;;;;;;;1.12;100.00;96363.84;5092563;28;20196;-56
2022/12/19 06:07:37;;;;;;;26.40;12.63;;;;;;;1.12;100.00;96339.66;5074086;28;20241;-57
2022/12/19 06:10:04;;;;;;;22.50;10.57;;;;;;;2.50;100.00;96244.31;5092308;28;20212;-53
2022/12/19 06:12:29;;;;;;;34.03;16.43;;;;;;;3.01;100.00;96272.13;5092381;28;20192;-55
2022/12/19 06:14:55;;;;;;;23.50;12.33;;;;;;;2.48;100.00;96351.44;5092367;28;20208;-56
2022/12/19 06:17:26;;;;;;;23.33;11.83;;;;;;;2.18;100.00;96438.31;5092041;28;20660;-53
2022/12/19 06:19:52;;;;;;;22.60;11.80;;;;;;;2.32;100.00;96445.53;5092094;28;20216;-54
2022/12/19 06:22:17;;;;;;;25.53;11.60;;;;;;;2.18;100.00;96424.97;5092181;28;20207;-56
2022/12/19 06:24:42;;;;;;;24.97;12.23;;;;;;;2.08;100.00;96426.84;5092118;28;20222;-56
2022/12/19 06:27:08;;;;;;;25.53;10.93;;;;;;;2.13;100.00;96461.88;5092571;28;20184;-52
2022/12/19 06:29:33;;;;;;;18.77;10.13;;;;;;;2.19;100.00;96474.28;5092073;28;20211;-53
2022/12/19 06:31:59;;;;;;;16.43;10.30;;;;;;;2.38;100.00;96500.59;5092306;28;20180;-52
2022/12/19 06:34:24;;;;;;;19.20;10.87;;;;;;;2.29;100.00;96471.53;5091669;28;20223;-54
2022/12/19 06:36:49;;;;;;;17.80;9.90;;;;;;;2.34;100.00;96514.88;5092245;28;20200;-54
2022/12/19 06:39:15;;;;;;;21.07;11.23;;;;;;;2.24;100.00;96505.91;5089472;28;20220;-53
2022/12/19 06:44:25;;;;;;;21.57;11.40;;;;;;;2.19;100.00;96459.22;5091952;28;20289;-53
2022/12/19 06:46:52;;;;;;;19.17;10.30;;;;;;;2.35;100.00;96483.09;5092309;28;20211;-56
2022/12/19 06:49:18;;;;;;;20.47;10.30;;;;;;;2.43;100.00;96496.28;5091746;28;20222;-53
2022/12/19 06:51:43;;;;;;;22.63;11.57;;;;;;;2.34;100.00;96448.84;5092175;28;20629;-54
2022/12/19 06:54:10;;;;;;;21.30;11.70;;;;;;;2.30;100.00;96459.81;5073127;28;20581;-53
2022/12/19 06:56:37;;;;;;;22.57;11.23;;;;;;;2.28;100.00;96431.41;5091677;28;20192;-55
2022/12/19 06:59:03;;;;;;;22.37;11.47;;;;;;;2.25;100.00;96429.81;5091677;28;20216;-54
2022/12/19 07:01:47;;;;;;;24.50;12.50;;;;;;;2.30;100.00;96437.22;5091836;28;20253;-56
2022/12/19 07:04:17;;;;;;;23.90;12.17;;;;;;;2.30;100.00;96437.22;5091521;28;20200;-55
2022/12/19 07:06:42;;;;;;;21.20;11.43;;;;;;;2.46;100.00;96441.00;5056739;28;20195;-62
2022/12/19 07:09:08;;;;;;;27.27;12.63;;;;;;;2.68;100.00;96504.88;5091568;28;20208;-56
2022/12/19 07:11:33;;;;;;;21.43;11.57;;;;;;;2.72;100.00;96511.47;5091740;28;20198;-53
2022/12/19 07:13:59;;;;;;;23.13;11.63;;;;;;;2.55;100.00;96489.28;5091364;28;20190;-56
2022/12/19 07:16:26;;;;;;;22.77;11.57;;;;;;;2.70;100.00;96525.75;5091761;28;20185;-53
2022/12/19 07:18:51;;;;;;;24.17;13.10;;;;;;;2.70;100.00;96507.34;5091331;28;20256;-53
2022/12/19 07:21:17;;;;;;;24.13;12.73;;;;;;;2.60;100.00;96506.75;5073152;28;20192;-52
2022/12/19 07:23:43;;;;;;;25.87;13.33;;;;;;;2.63;100.00;96463.19;5091353;28;20569;-56
2022/12/19 07:26:08;;;;;;;26.30;13.60;;;;;;;2.85;100.00;96496.94;5091164;28;20211;-55
2022/12/19 07:28:35;;;;;;;32.03;14.03;;;;;;;2.75;100.00;96471.22;5091301;28;20195;-55
2022/12/19 07:31:01;;;;;;;34.07;14.33;;;;;;;2.83;100.00;96479.38;5091416;28;20214;-56
2022/12/19 07:33:26;;;;;;;30.03;14.73;;;;;;;2.90;100.00;96465.81;5091411;28;20191;-56
2022/12/19 07:35:52;;;;;;;26.23;13.47;;;;;;;3.03;100.00;96472.16;5091560;28;20523;-54
2022/12/19 07:38:17;;;;;;;37.93;15.47;;;;;;;2.96;100.00;96419.63;5091298;28;20215;-54
2022/12/19 07:40:42;;;;;;;31.57;15.77;;;;;;;2.96;100.00;96439.72;5091256;28;20282;-56
2022/12/19 07:43:08;;;;;;;29.17;14.70;;;;;;;3.02;100.00;96447.09;5091039;28;20200;-53
2022/12/19 07:45:36;;;;;;;28.30;15.73;;;;;;;3.01;100.00;96488.97;5091030;28;20239;-53
2022/12/19 07:48:03;;;;;;;35.13;17.23;;;;;;;3.05;100.00;96462.91;5090960;28;20240;-53
2022/12/19 07:50:29;;;;;;;35.33;16.87;;;;;;;3.10;100.00;96488.72;5090679;28;20207;-54
2022/12/19 07:52:54;;;;;;;32.97;15.60;;;;;;;3.18;100.00;96499.41;5090870;28;20194;-56
2022/12/19 07:55:20;;;;;;;30.10;15.73;;;;;;;3.13;100.00;96506.22;5091000;28;20257;-54
2022/12/19 07:57:45;;;;;;;35.63;17.30;;;;;;;2.99;100.00;96478.13;5090659;28;20215;-55
2022/12/19 08:00:11;;;;;;;30.30;16.23;;;;;;;3.01;100.00;96491.47;5090800;28;20207;-56
2022/12/19 08:02:36;;;;;;;31.83;17.07;;;;;;;3.08;100.00;96513.06;5090709;28;20206;-56
2022/12/19 08:05:03;;;;;;;27.73;16.50;;;;;;;3.11;100.00;96525.53;5090664;28;20207;-53
2022/12/19 08:07:28;;;;;;;36.40;17.47;;;;;;;2.92;100.00;96498.41;5094209;28;20237;-52
2022/12/19 08:09:54;;;;;;;30.27;17.13;;;;;;;3.01;100.00;96508.25;5094207;28;20208;-56
2022/12/19 08:12:20;;;;;;;33.40;16.90;;;;;;;2.94;100.00;96474.91;5094260;28;20187;-53
2022/12/19 08:14:45;;;;;;;34.57;16.77;;;;;;;2.84;100.00;96460.97;5094363;28;20200;-54
2022/12/19 08:17:11;;;;;;;34.17;16.43;;;;;;;3.00;100.00;96482.31;5094474;28;20214;-57
2022/12/19 08:19:36;;;;;;;31.87;15.47;;;;;;;3.04;100.00;96519.03;5093935;28;20212;-55
2022/12/19 08:22:01;;;;;;;30.90;16.57;;;;;;;2.97;100.00;96494.91;5094662;28;20236;-53
2022/12/19 08:24:27;;;;;;;27.07;14.93;;;;;;;3.04;100.00;96503.13;5094092;28;20219;-52
2022/12/19 08:26:52;;;;;;;32.53;15.73;;;;;;;3.07;100.00;96539.03;5094101;28;20192;-53
2022/12/19 08:29:18;;;;;;;37.03;17.93;;;;;;;3.05;100.00;96515.66;5094121;28;20221;-53
2022/12/19 08:31:43;;;;;;;32.67;16.73;;;;;;;3.26;100.00;96547.78;5094237;28;20219;-53
2022/12/19 08:34:08;;;;;;;31.97;16.20;;;;;;;3.04;100.00;96539.13;5094180;28;20222;-55
2022/12/19 08:36:34;;;;;;;38.30;17.20;;;;;;;2.87;100.00;96491.00;5093947;28;20184;-56
2022/12/19 08:38:59;;;;;;;38.67;17.13;;;;;;;2.92;100.00;96509.31;5093697;28;20209;-56
2022/12/19 08:41:25;;;;;;;30.50;16.27;;;;;;;2.91;100.00;96487.53;5094243;28;20217;-54
2022/12/19 08:43:52;;;;;;;34.43;17.10;;;;;;;2.89;100.00;96486.75;5093833;28;20194;-54
2022/12/19 08:46:18;;;;;;;33.87;16.47;;;;;;;2.88;100.00;96500.19;5094095;28;20189;-58
2022/12/19 08:48:44;;;;;;;35.37;16.47;;;;;;;2.98;100.00;96488.22;5093528;28;20260;-56
2022/12/19 08:51:12;;;;;;;35.70;17.43;;;;;;;2.85;100.00;96482.69;5093815;28;20212;-57
2022/12/19 08:53:40;;;;;;;31.63;16.07;;;;;;;2.74;100.00;96439.47;5093475;28;20645;-56
2022/12/19 08:56:19;;;;;;;31.93;17.53;;;;;;;2.66;100.00;96423.75;5093554;28;20212;-54
2022/12/19 08:58:46;;;;;;;40.47;16.67;;;;;;;2.77;100.00;96436.06;5093697;28;20224;-56
2022/12/19 09:01:22;;;;;;;32.90;17.10;;;;;;;2.93;100.00;96410.47;5093416;28;20276;-56
2022/12/19 09:03:48;;;;;;;32.97;16.13;;;;;;;3.00;100.00;96447.13;5076681;28;20219;-55
2022/12/19 09:06:15;;;;;;;34.23;16.97;;;;;;;3.00;100.00;96437.09;5093510;28;20568;-56
2022/12/19 09:08:41;;;;;;;33.10;16.63;;;;;;;3.05;100.00;96450.34;5093524;28;20220;-56
2022/12/19 09:11:09;;;;;;;33.53;17.17;;;;;;;3.08;100.00;96414.25;5075334;28;20247;-53
2022/12/19 09:13:36;;;;;;;30.23;15.17;;;;;;;3.08;100.00;96437.69;5093421;28;20287;-56
2022/12/19 09:16:21;;;;;;;30.43;15.10;;;;;;;3.23;100.00;96444.00;5074944;28;20634;-57
2022/12/19 09:18:49;;;;;;;28.47;14.10;;;;;;;3.14;100.00;96439.22;5093452;28;20248;-56
2022/12/19 09:21:16;;;;;;;27.73;14.30;;;;;;;2.98;100.00;96411.19;5093283;28;20192;-56
2022/12/19 09:23:42;;;;;;;27.73;14.57;;;;;;;3.05;100.00;96442.78;5093218;28;20658;-58
2022/12/19 09:26:11;;;;;;;29.73;13.93;;;;;;;3.05;100.00;96427.72;5093442;28;20219;-55
2022/12/19 09:28:38;;;;;;;26.90;14.27;;;;;;;3.14;100.00;96445.06;5093224;28;20196;-55
2022/12/19 09:31:06;;;;;;;27.07;13.43;;;;;;;3.14;100.00;96439.22;5093360;28;20697;-54
2022/12/19 09:33:34;;;;;;;26.80;13.80;;;;;;;3.10;100.00;96390.75;5092941;28;20201;-54
2022/12/19 09:36:00;;;;;;;25.87;12.70;;;;;;;3.24;100.00;96438.94;5100650;22;20230;-53
2022/12/19 09:38:28;;;;;;;25.63;12.83;;;;;;;3.16;100.00;96442.50;5092924;28;20249;-53
2022/12/19 09:40:53;;;;;;;41.97;19.30;;;;;;;3.11;100.00;96399.91;5092967;28;20218;-54
2022/12/19 09:44:02;;;;;;;25.20;13.07;;;;;;;3.19;100.00;96367.06;5092881;28;20188;-54
2022/12/19 09:46:46;;;;;;;29.37;14.40;;;;;;;2.91;100.00;96341.88;5041365;28;20220;-55
2022/12/19 09:49:15;;;;;;;29.23;13.03;;;;;;;2.97;100.00;96355.97;5092655;28;20245;-54
2022/12/19 09:52:20;;;;;;;25.67;12.90;;;;;;;3.17;100.00;96361.25;5074795;28;20199;-56
2022/12/19 09:54:56;;;;;;;27.27;13.37;;;;;;;3.11;100.00;96346.38;5060611;28;20219;-56
2022/12/19 09:57:39;;;;;;;24.20;11.97;;;;;;;3.29;100.00;96371.75;5074652;28;20216;-56
2022/12/19 10:00:18;;;;;;;26.70;12.70;;;;;;;3.12;100.00;96321.19;5092856;28;20212;-55
2022/12/19 10:03:19;;;;;;;26.27;11.83;;;;;;;3.03;100.00;96276.22;5092721;28;20199;-54
2022/12/19 10:05:49;;;;;;;30.30;13.00;;;;;;;3.47;100.00;96349.47;5036980;28;20224;-56
2022/12/19 10:08:34;;;;;;;28.77;13.17;;;;;;;3.27;100.00;96335.81;5092618;28;20184;-53
2022/12/19 10:11:07;;;;;;;22.03;11.93;;;;;;;3.45;100.00;96336.13;5074809;28;20307;-53
2022/12/19 10:13:35;;;;;;;26.93;13.57;;;;;;;3.45;100.00;96309.31;5074320;28;20661;-54
2022/12/19 10:16:33;;;;;;;25.33;12.57;;;;;;;3.73;100.00;96336.94;5092850;28;20276;-55
2022/12/19 10:19:12;;;;;;;21.90;13.17;;;;;;;3.87;100.00;96337.34;5049264;28;20302;-57
2022/12/19 10:21:41;;;;;;;27.00;13.57;;;;;;;3.99;100.00;96347.84;5092157;28;20196;-56
2022/12/19 10:24:43;;;;;;;21.37;11.50;;;;;;;4.01;100.00;96361.19;5092346;28;20196;-56
2022/12/19 10:27:20;;;;;;;28.70;13.53;;;;;;;3.98;100.00;96356.25;5092586;28;20195;-54
2022/12/19 10:30:14;;;;;;;26.27;12.90;;;;;;;4.03;100.00;96334.28;5091584;28;20215;-54
2022/12/19 10:32:58;;;;;;;25.07;14.10;;;;;;;3.98;100.00;96325.25;5074130;28;20188;-54
2022/12/19 10:35:33;;;;;;;26.60;13.30;;;;;;;4.01;100.00;96325.97;5092457;28;20220;-53
2022/12/19 10:38:21;;;;;;;29.60;12.97;;;;;;;4.07;100.00;96312.34;5092103;28;20210;-54
2022/12/19 10:40:54;;;;;;;25.77;13.27;;;;;;;3.95;100.00;96305.22;5092508;28;20682;-53
2022/12/19 10:43:30;;;;;;;24.00;12.80;;;;;;;4.05;100.00;96294.81;5092306;28;20200;-56
2022/12/19 10:46:01;;;;;;;23.10;12.73;;;;;;;4.05;100.00;96327.50;5091915;28;20223;-54
2022/12/19 10:48:27;;;;;;;28.67;13.37;;;;;;;4.08;100.00;96281.31;5073558;28;20188;-54
2022/12/19 10:50:53;;;;;;;25.73;12.60;;;;;;;4.01;100.00;96288.22;5091832;28;20212;-57
2022/12/19 10:53:26;;;;;;;30.20;13.90;;;;;;;4.16;100.00;96285.19;5091927;28;20196;-54
2022/12/19 10:55:53;;;;;;;26.70;13.00;;;;;;;4.24;100.00;96315.16;5092312;28;20220;-53
2022/12/19 10:58:34;;;;;;;23.87;12.63;;;;;;;4.24;100.00;96297.53;5091638;28;20596;-55
2022/12/19 11:01:14;;;;;;;27.43;13.57;;;;;;;4.28;100.00;96297.34;5091927;28;20215;-56
2022/12/19 11:03:48;;;;;;;25.07;12.30;;;;;;;4.11;100.00;96274.47;5091735;28;20333;-53
2022/12/19 11:06:36;;;;;;;24.87;12.77;;;;;;;4.06;100.00;96298.16;5092025;28;20187;-54
2022/12/19 11:09:29;;;;;;;28.70;12.37;;;;;;;4.25;100.00;96291.59;5091511;28;20199;-52
2022/12/19 11:12:14;;;;;;;24.23;11.73;;;;;;;4.26;100.00;96295.78;5091586;28;20183;-55
2022/12/19 11:14:43;;;;;;;21.80;11.00;;;;;;;4.17;100.00;96298.59;5091490;28;20220;-57
2022/12/19 11:17:31;;;;;;;22.83;12.13;;;;;;;4.13;100.00;96271.88;5091533;28;20272;-53
2022/12/19 11:19:57;;;;;;;28.53;11.43;;;;;;;4.19;100.00;96320.31;5091276;28;20212;-53
2022/12/19 11:22:31;;;;;;;25.13;12.27;;;;;;;4.17;100.00;96275.94;5091419;28;20684;-55
2022/12/19 11:24:57;;;;;;;18.57;9.87;;;;;;;4.19;100.00;96290.13;5091281;28;20210;-57
2022/12/19 11:27:45;;;;;;;19.03;10.77;;;;;;;4.19;100.00;96299.38;5091456;28;20173;-53
2022/12/19 11:30:14;;;;;;;25.00;11.37;;;;;;;4.18;100.00;96277.59;5091552;28;20274;-54
2022/12/19 11:32:42;;;;;;;21.40;11.13;;;;;;;4.20;100.00;96275.84;5072895;28;20294;-53